createdAt,value
2024-02-02T00:00:42.627Z,101075.06
2024-02-02T00:03:09.303Z,101075.28
2024-02-02T00:05:35.854Z,101071.56
2024-02-02T00:08:02.754Z,101072.66
2024-02-02T00:10:29.476Z,101065.28
2024-02-02T00:12:56.823Z,101067.56
2024-02-02T00:15:23.676Z,101064.72
2024-02-02T00:17:50.504Z,101065.34
2024-02-02T00:20:17.202Z,101073.59
2024-02-02T00:22:43.782Z,101065.78
2024-02-02T00:25:10.272Z,101067.84
2024-02-02T00:27:37.001Z,101072.81
2024-02-02T00:30:03.888Z,101071.16
2024-02-02T00:32:30.532Z,101078.75
2024-02-02T00:34:57.123Z,101077.53
2024-02-02T00:37:23.913Z,101077.69
2024-02-02T00:39:50.441Z,101086.75
2024-02-02T00:42:16.999Z,101091.31
2024-02-02T00:44:43.506Z,101073.53
2024-02-02T00:47:09.992Z,101065.28
2024-02-02T00:49:36.651Z,101068.13
2024-02-02T00:52:03.231Z,101056.16
2024-02-02T00:54:30.121Z,101058.16
2024-02-02T00:56:56.813Z,101057.31
2024-02-02T00:59:23.632Z,101072.13
2024-02-02T01:01:51.147Z,101068.78
2024-02-02T01:04:17.694Z,101061.34
2024-02-02T01:06:44.994Z,101068.72
2024-02-02T01:09:12.202Z,101064.56
2024-02-02T01:11:38.949Z,101063.69
2024-02-02T01:14:05.480Z,101045.91
2024-02-02T01:16:34.094Z,101048.72
2024-02-02T01:19:01.179Z,101046.66
2024-02-02T01:21:28.801Z,101045.16
2024-02-02T01:23:55.562Z,101058.56
2024-02-02T01:26:22.183Z,101055.28
2024-02-02T01:28:48.659Z,101052.00
2024-02-02T01:31:15.118Z,101056.03
2024-02-02T01:33:41.789Z,101055.44
2024-02-02T01:36:08.892Z,101052.97
2024-02-02T01:38:35.492Z,101062.88
2024-02-02T01:41:02.023Z,101056.03
2024-02-02T01:43:30.416Z,101048.78
2024-02-02T01:45:57.156Z,101051.66
2024-02-02T01:48:25.475Z,101056.78
2024-02-02T01:50:52.282Z,101052.00
2024-02-02T01:53:18.858Z,101031.41
2024-02-02T01:55:45.476Z,101028.94
2024-02-02T01:58:12.254Z,101035.56
2024-02-02T02:00:38.997Z,101042.19
2024-02-02T02:03:06.055Z,101047.38
2024-02-02T02:05:32.793Z,101047.22
2024-02-02T02:07:59.516Z,101048.53
2024-02-02T02:10:26.365Z,101054.78
2024-02-02T02:12:52.876Z,101060.00
2024-02-02T02:15:19.479Z,101057.56
2024-02-02T02:17:47.533Z,101057.00
2024-02-02T02:20:20.571Z,101047.13
2024-02-02T02:22:47.301Z,101042.53
2024-02-02T02:25:14.026Z,101041.66
2024-02-02T02:27:40.540Z,101058.94
2024-02-02T02:30:07.615Z,101051.50
2024-02-02T02:32:34.206Z,101041.16
2024-02-02T02:35:00.745Z,101039.00
2024-02-02T02:37:27.209Z,101037.13
2024-02-02T02:39:53.737Z,101031.31
2024-02-02T02:42:20.753Z,101037.25
2024-02-02T02:44:47.306Z,101031.00
2024-02-02T02:47:13.957Z,101040.03
2024-02-02T02:49:40.652Z,101036.31
2024-02-02T02:52:08.043Z,101037.13
2024-02-02T02:54:34.930Z,101029.06
2024-02-02T02:57:02.151Z,101016.88
2024-02-02T02:59:31.431Z,101016.44
2024-02-02T03:01:58.050Z,101015.75
2024-02-02T03:04:24.609Z,101016.34
2024-02-02T03:06:51.213Z,101028.72
2024-02-02T03:09:17.864Z,101020.00
2024-02-02T03:11:44.397Z,101027.44
2024-02-02T03:14:11.074Z,101009.25
2024-02-02T03:16:37.695Z,101009.25
2024-02-02T03:19:05.508Z,101012.78
2024-02-02T03:21:32.271Z,101013.13
2024-02-02T03:23:58.824Z,101008.16
2024-02-02T03:26:25.356Z,101004.66
2024-02-02T03:28:51.832Z,101003.91
2024-02-02T03:31:18.364Z,100995.41
2024-02-02T03:33:44.935Z,100990.63
2024-02-02T03:36:11.494Z,100999.72
2024-02-02T03:38:37.978Z,100985.38
2024-02-02T03:41:04.872Z,100984.78
2024-02-02T03:43:32.091Z,100996.31
2024-02-02T03:45:58.622Z,101001.81
2024-02-02T03:48:25.211Z,101012.53
2024-02-02T03:50:51.763Z,101017.56
2024-02-02T03:53:18.284Z,101020.31
2024-02-02T03:55:44.803Z,101020.06
2024-02-02T03:58:11.365Z,101022.97
2024-02-02T04:00:37.987Z,101016.50
2024-02-02T04:03:04.959Z,101010.84
2024-02-02T04:05:32.011Z,101016.56
2024-02-02T04:07:58.537Z,101012.84
2024-02-02T04:10:25.055Z,101015.75
2024-02-02T04:12:51.597Z,101024.38
2024-02-02T04:15:18.120Z,101032.22
2024-02-02T04:17:44.650Z,101040.19
2024-02-02T04:20:11.597Z,101028.31
2024-02-02T04:22:38.143Z,101033.34
2024-02-02T04:25:05.100Z,101038.69
2024-02-02T04:27:31.675Z,101047.03
2024-02-02T04:29:58.378Z,101043.09
2024-02-02T04:32:24.967Z,101038.78
2024-02-02T04:34:51.489Z,101049.13
2024-02-02T04:37:18.019Z,101044.59
2024-02-02T04:39:44.689Z,101041.31
2024-02-02T04:42:11.356Z,101046.69
2024-02-02T04:44:38.107Z,101036.09
2024-02-02T04:47:04.678Z,101030.72
2024-02-02T04:49:31.377Z,101038.63
2024-02-02T04:51:58.009Z,101027.31
2024-02-02T04:54:24.561Z,101034.75
2024-02-02T04:56:51.077Z,101029.59
2024-02-02T04:59:17.795Z,101028.19
2024-02-02T05:01:44.336Z,101028.50
2024-02-02T05:04:10.864Z,101026.25
2024-02-02T05:06:37.463Z,101028.09
2024-02-02T05:09:04.005Z,101015.16
2024-02-02T05:11:30.481Z,101020.16
2024-02-02T05:13:56.955Z,101004.94
2024-02-02T05:16:23.582Z,101012.38
2024-02-02T05:18:51.722Z,101029.75
2024-02-02T05:21:19.538Z,101023.56
2024-02-02T05:23:49.574Z,101029.06
2024-02-02T05:26:17.525Z,101037.34
2024-02-02T05:28:44.398Z,101044.13
2024-02-02T05:31:11.254Z,101043.06
2024-02-02T05:33:37.947Z,101050.69
2024-02-02T05:36:04.652Z,101046.53
2024-02-02T05:38:31.271Z,101042.16
2024-02-02T05:40:57.757Z,101040.25
2024-02-02T05:43:24.798Z,101034.09
2024-02-02T05:45:51.328Z,101040.13
2024-02-02T05:48:17.999Z,101039.47
2024-02-02T05:50:45.767Z,101041.44
2024-02-02T05:53:13.864Z,101046.56
2024-02-02T05:55:40.864Z,101049.72
2024-02-02T05:58:07.400Z,101059.25
2024-02-02T06:00:34.245Z,101048.38
2024-02-02T06:03:01.044Z,101040.25
2024-02-02T06:05:27.614Z,101037.94
2024-02-02T06:07:54.135Z,101047.28
2024-02-02T06:10:20.680Z,101052.75
2024-02-02T06:12:47.180Z,101050.03
2024-02-02T06:15:13.777Z,101045.97
2024-02-02T06:17:40.301Z,101042.22
2024-02-02T06:20:07.851Z,101046.41
2024-02-02T06:22:34.477Z,101049.19
2024-02-02T06:25:01.124Z,101059.81
2024-02-02T06:27:28.624Z,101060.81
2024-02-02T06:29:55.281Z,101059.72
2024-02-02T06:32:24.653Z,101053.59
2024-02-02T06:34:56.644Z,101048.25
2024-02-02T06:37:24.617Z,101062.72
2024-02-02T06:39:53.255Z,101069.59
2024-02-02T06:42:20.448Z,101058.25
2024-02-02T06:44:47.113Z,101063.84
2024-02-02T06:47:13.577Z,101058.94
2024-02-02T06:49:40.115Z,101064.09
2024-02-02T06:52:06.876Z,101056.03
2024-02-02T06:54:33.407Z,101052.28
2024-02-02T06:56:59.919Z,101052.75
2024-02-02T06:59:26.426Z,101054.09
2024-02-02T07:01:53.784Z,101056.63
2024-02-02T07:04:20.448Z,101048.00
2024-02-02T07:06:48.388Z,101038.53
2024-02-02T07:09:24.180Z,101045.63
2024-02-02T07:12:04.858Z,101041.13
2024-02-02T07:14:45.231Z,101040.78
2024-02-02T07:17:30.369Z,101035.03
2024-02-02T07:19:58.452Z,101028.88
2024-02-02T07:22:40.908Z,101031.19
2024-02-02T07:25:11.538Z,101034.06
2024-02-02T07:27:55.565Z,101049.38
2024-02-02T07:30:56.504Z,101041.91
2024-02-02T07:33:24.796Z,101056.50
2024-02-02T07:35:52.216Z,101055.00
2024-02-02T07:38:50.735Z,101052.84
2024-02-02T07:41:18.288Z,101052.63
2024-02-02T07:43:45.946Z,101044.72
2024-02-02T07:46:15.670Z,101052.19
2024-02-02T07:48:43.521Z,101041.91
2024-02-02T07:51:11.106Z,101042.25
2024-02-02T07:53:37.754Z,101045.00
2024-02-02T07:56:04.478Z,101055.66
2024-02-02T07:58:31.022Z,101059.91
2024-02-02T08:00:58.967Z,101061.78
2024-02-02T08:03:25.868Z,101070.31
2024-02-02T08:05:52.638Z,101069.88
2024-02-02T08:08:19.427Z,101067.31
2024-02-02T08:10:47.310Z,101069.56
2024-02-02T08:13:15.229Z,101065.69
2024-02-02T08:15:41.958Z,101056.22
2024-02-02T08:18:10.087Z,101056.94
2024-02-02T08:20:36.752Z,101056.13
2024-02-02T08:23:03.869Z,101052.47
2024-02-02T08:25:30.708Z,101045.38
2024-02-02T08:27:57.792Z,101043.66
2024-02-02T08:30:24.991Z,101059.31
2024-02-02T08:32:52.849Z,101057.13
2024-02-02T08:35:23.679Z,101050.81
2024-02-02T08:38:01.159Z,101064.50
2024-02-02T08:40:35.397Z,101068.41
2024-02-02T08:43:02.986Z,101073.31
2024-02-02T08:46:03.579Z,101069.09
2024-02-02T08:48:46.466Z,101068.63
2024-02-02T08:51:22.839Z,101068.19
2024-02-02T08:54:06.486Z,101068.53
2024-02-02T08:56:33.137Z,101056.63
2024-02-02T08:58:59.640Z,101061.19
2024-02-02T09:01:43.298Z,101054.91
2024-02-02T09:05:00.071Z,101057.75
2024-02-02T09:07:26.727Z,101046.41
2024-02-02T09:09:53.410Z,101052.47
2024-02-02T09:12:20.160Z,101054.22
2024-02-02T09:14:46.758Z,101059.25
2024-02-02T09:17:14.041Z,101053.03
2024-02-02T09:19:47.078Z,101046.84
2024-02-02T09:22:17.410Z,101055.50
2024-02-02T09:24:46.850Z,101053.03
2024-02-02T09:27:15.367Z,101054.22
2024-02-02T09:29:48.326Z,101060.53
2024-02-02T09:32:16.716Z,101045.31
2024-02-02T09:34:46.644Z,101054.28
2024-02-02T09:37:26.684Z,101053.22
2024-02-02T09:39:57.484Z,101058.91
2024-02-02T09:42:51.942Z,101068.16
2024-02-02T09:45:34.278Z,101072.38
2024-02-02T09:48:14.117Z,101072.59
2024-02-02T09:51:22.688Z,101083.00
2024-02-02T09:54:01.750Z,101090.13
2024-02-02T09:56:34.088Z,101087.19
2024-02-02T09:59:05.357Z,101090.13
2024-02-02T10:01:46.979Z,101082.47
2024-02-02T10:04:22.045Z,101073.28
2024-02-02T10:07:07.445Z,101074.44
2024-02-02T10:09:56.702Z,101083.38
2024-02-02T10:12:42.146Z,101087.81
2024-02-02T10:15:43.787Z,101084.25
2024-02-02T10:18:25.455Z,101087.59
2024-02-02T10:21:21.381Z,101091.25
2024-02-02T10:24:18.287Z,101106.94
2024-02-02T10:26:58.162Z,101101.56
2024-02-02T10:29:55.803Z,101093.56
2024-02-02T10:32:45.380Z,101097.72
2024-02-02T10:35:50.393Z,101098.19
2024-02-02T10:38:50.696Z,101089.03
2024-02-02T10:41:22.937Z,101088.88
2024-02-02T10:44:27.136Z,101088.72
2024-02-02T10:47:15.269Z,101075.47
2024-02-02T10:50:16.271Z,101079.06
2024-02-02T10:53:10.320Z,101064.56
2024-02-02T10:55:55.287Z,101067.50
2024-02-02T10:58:31.043Z,101060.00
2024-02-02T11:01:12.869Z,101067.34
2024-02-02T11:03:59.289Z,101062.03
2024-02-02T11:06:54.177Z,101066.34
2024-02-02T11:09:26.733Z,101072.78
2024-02-02T11:12:08.413Z,101063.09
2024-02-02T11:14:54.940Z,101056.50
2024-02-02T11:17:34.836Z,101042.06
2024-02-02T11:20:22.895Z,101037.97
2024-02-02T11:23:04.723Z,101047.28
2024-02-02T11:25:42.291Z,101032.75
2024-02-02T11:28:20.700Z,101029.38
2024-02-02T11:31:26.096Z,101041.25
2024-02-02T11:34:01.307Z,101032.06
2024-02-02T11:36:55.534Z,101029.13
2024-02-02T11:39:40.725Z,101028.69
2024-02-02T11:42:11.927Z,101029.13
2024-02-02T11:44:41.734Z,101034.78
2024-02-02T11:47:10.558Z,101023.97
2024-02-02T11:49:45.288Z,101014.06
2024-02-02T11:52:40.627Z,101021.97
2024-02-02T11:55:16.284Z,101025.69
2024-02-02T11:57:50.202Z,101034.59
2024-02-02T12:00:25.087Z,101041.06
2024-02-02T12:03:28.047Z,101042.94
2024-02-02T12:06:06.852Z,101044.75
2024-02-02T12:08:44.179Z,101043.06
2024-02-02T12:11:15.777Z,101048.22
2024-02-02T12:13:45.922Z,101044.56
2024-02-02T12:16:12.617Z,101033.88
2024-02-02T12:18:39.549Z,101026.53
2024-02-02T12:21:13.629Z,101031.94
2024-02-02T12:23:40.259Z,101015.56
2024-02-02T12:26:08.123Z,101014.22
2024-02-02T12:28:34.627Z,101011.34
2024-02-02T12:31:02.108Z,101006.41
2024-02-02T12:33:28.709Z,100999.03
2024-02-02T12:35:58.405Z,100996.34
2024-02-02T12:38:27.638Z,100985.41
2024-02-02T12:40:54.180Z,100985.88
2024-02-02T12:43:25.507Z,100971.31
2024-02-02T12:45:54.467Z,100957.09
2024-02-02T12:48:21.507Z,100960.13
2024-02-02T12:50:50.452Z,100969.09
2024-02-02T12:53:18.047Z,100954.34
2024-02-02T12:55:46.481Z,100956.59
2024-02-02T12:58:13.043Z,100953.97
2024-02-02T13:00:40.181Z,100950.19
2024-02-02T13:03:08.674Z,100955.59
2024-02-02T13:05:35.274Z,100947.53
2024-02-02T13:08:03.899Z,100947.44
2024-02-02T13:10:45.141Z,100951.16
2024-02-02T13:13:13.082Z,100967.38
2024-02-02T13:15:40.081Z,100956.25
2024-02-02T13:18:13.551Z,100960.81
2024-02-02T13:20:43.047Z,100948.19
2024-02-02T13:23:14.213Z,100946.34
2024-02-02T13:25:41.774Z,100929.63
2024-02-02T13:28:17.357Z,100930.84
2024-02-02T13:31:05.812Z,100928.78
2024-02-02T13:33:34.143Z,100930.25
2024-02-02T13:36:02.880Z,100932.84
2024-02-02T13:38:32.465Z,100936.38
2024-02-02T13:41:00.777Z,100933.22
2024-02-02T13:43:28.909Z,100922.22
2024-02-02T13:46:06.269Z,100921.75
2024-02-02T13:48:44.408Z,100906.63
2024-02-02T13:51:11.539Z,100912.16
2024-02-02T13:53:38.211Z,100887.25
2024-02-02T13:56:06.323Z,100882.97
2024-02-02T13:58:39.954Z,100872.97
2024-02-02T14:01:21.633Z,100877.09
2024-02-02T14:03:52.496Z,100878.47
2024-02-02T14:06:19.900Z,100865.75
2024-02-02T14:08:49.664Z,100869.00
2024-02-02T14:11:23.845Z,100876.00
2024-02-02T14:13:51.441Z,100860.28
2024-02-02T14:16:25.886Z,100848.34
2024-02-02T14:18:59.303Z,100851.88
2024-02-02T14:21:30.512Z,100847.81
2024-02-02T14:24:13.563Z,100850.25
2024-02-02T14:26:57.614Z,100853.78
2024-02-02T14:29:28.150Z,100859.16
2024-02-02T14:31:59.149Z,100859.16
2024-02-02T14:34:28.343Z,100867.34
2024-02-02T14:36:55.824Z,100869.00
2024-02-02T14:39:27.055Z,100860.84
2024-02-02T14:41:55.124Z,100867.81
2024-02-02T14:44:22.091Z,100862.81
2024-02-02T14:46:48.885Z,100873.06
2024-02-02T14:49:16.082Z,100873.59
2024-02-02T14:51:42.812Z,100878.47
2024-02-02T14:54:09.586Z,100872.19
2024-02-02T14:56:39.283Z,100878.91
2024-02-02T14:59:09.563Z,100881.00
2024-02-02T15:01:37.456Z,100875.03
2024-02-02T15:04:05.516Z,100877.13
2024-02-02T15:06:33.686Z,100867.84
2024-02-02T15:09:00.990Z,100866.75
2024-02-02T15:11:28.431Z,100867.00
2024-02-02T15:13:55.904Z,100864.56
2024-02-02T15:16:22.428Z,100853.19
2024-02-02T15:18:49.122Z,100855.53
2024-02-02T15:21:16.240Z,100860.91
2024-02-02T15:23:43.252Z,100859.88
2024-02-02T15:26:10.341Z,100848.31
2024-02-02T15:28:39.701Z,100849.13
2024-02-02T15:31:09.712Z,100854.81
2024-02-02T15:33:36.414Z,100843.38
2024-02-02T15:36:03.501Z,100843.38
2024-02-02T15:38:30.010Z,100845.50
2024-02-02T15:40:59.024Z,100849.66
2024-02-02T15:43:25.770Z,100861.72
2024-02-02T15:45:52.981Z,100852.25
2024-02-02T15:48:20.142Z,100855.13
2024-02-02T15:50:47.384Z,100851.56
2024-02-02T15:53:13.925Z,100856.97
2024-02-02T15:55:40.546Z,100858.31
2024-02-02T15:58:07.165Z,100864.31
2024-02-02T16:00:33.755Z,100876.09
2024-02-02T16:03:00.267Z,100876.38
2024-02-02T16:05:26.921Z,100873.06
2024-02-02T16:07:53.436Z,100876.78
2024-02-02T16:10:20.062Z,100878.34
2024-02-02T16:12:46.711Z,100877.75
2024-02-02T16:15:13.876Z,100884.47
2024-02-02T16:17:41.179Z,100879.00
2024-02-02T16:20:11.870Z,100883.03
2024-02-02T16:22:42.183Z,100893.75
2024-02-02T16:25:10.140Z,100889.38
2024-02-02T16:27:36.905Z,100891.25
2024-02-02T16:30:03.612Z,100883.91
2024-02-02T16:32:30.140Z,100876.63
2024-02-02T16:34:57.048Z,100877.38
2024-02-02T16:37:24.248Z,100881.59
2024-02-02T16:39:51.037Z,100875.59
2024-02-02T16:42:18.320Z,100876.56
2024-02-02T16:44:44.907Z,100873.19
2024-02-02T16:47:11.635Z,100866.16
2024-02-02T16:49:39.863Z,100863.09
2024-02-02T16:52:06.936Z,100871.19
2024-02-02T16:54:33.502Z,100872.63
2024-02-02T16:57:00.124Z,100863.47
2024-02-02T16:59:27.221Z,100870.72
2024-02-02T17:01:53.785Z,100856.81
2024-02-02T17:04:20.406Z,100864.91
2024-02-02T17:06:47.050Z,100857.31
2024-02-02T17:09:13.717Z,100859.72
2024-02-02T17:11:40.341Z,100859.91
2024-02-02T17:14:06.925Z,100855.81
2024-02-02T17:16:33.592Z,100850.75
2024-02-02T17:19:00.251Z,100861.53
2024-02-02T17:21:27.212Z,100847.53
2024-02-02T17:23:54.170Z,100858.66
2024-02-02T17:26:20.777Z,100860.03
2024-02-02T17:28:47.658Z,100853.31
2024-02-02T17:31:15.782Z,100860.03
2024-02-02T17:33:43.098Z,100859.47
2024-02-02T17:36:16.531Z,100865.59
2024-02-02T17:38:43.951Z,100868.53
2024-02-02T17:41:15.663Z,100874.50
2024-02-02T17:43:44.119Z,100866.91
2024-02-02T17:46:17.583Z,100878.50
2024-02-02T17:48:44.201Z,100867.97
2024-02-02T17:51:11.371Z,100874.94
2024-02-02T17:53:41.085Z,100864.88
2024-02-02T17:56:09.135Z,100880.22
2024-02-02T17:58:36.477Z,100865.63
2024-02-02T18:01:03.308Z,100882.63
2024-02-02T18:03:30.678Z,100882.94
2024-02-02T18:05:57.273Z,100881.78
2024-02-02T18:08:23.866Z,100889.16
2024-02-02T18:10:50.917Z,100882.63
2024-02-02T18:13:17.569Z,100884.25
2024-02-02T18:15:44.477Z,100890.88
2024-02-02T18:18:12.146Z,100883.28
2024-02-02T18:20:38.843Z,100886.22
2024-02-02T18:23:07.040Z,100880.59
2024-02-02T18:25:33.669Z,100888.91
2024-02-02T18:28:00.407Z,100874.78
2024-02-02T18:30:28.838Z,100879.69
2024-02-02T18:32:55.709Z,100879.69
2024-02-02T18:35:22.423Z,100890.22
2024-02-02T18:37:50.150Z,100890.97
2024-02-02T18:40:17.064Z,100898.13
2024-02-02T18:42:43.636Z,100887.94
2024-02-02T18:45:10.582Z,100882.47
2024-02-02T18:47:39.035Z,100887.38
2024-02-02T18:50:07.520Z,100887.94
2024-02-02T18:52:34.076Z,100891.47
2024-02-02T18:55:00.615Z,100889.00
2024-02-02T18:57:27.138Z,100886.88
2024-02-02T18:59:53.669Z,100888.19
2024-02-02T19:02:20.211Z,100896.34
2024-02-02T19:04:46.973Z,100894.94
2024-02-02T19:07:14.181Z,100892.81
2024-02-02T19:09:40.958Z,100897.66
2024-02-02T19:12:07.702Z,100903.59
2024-02-02T19:14:34.333Z,100904.50
2024-02-02T19:17:00.820Z,100908.59
2024-02-02T19:19:27.389Z,100924.63
2024-02-02T19:21:53.985Z,100928.59
2024-02-02T19:24:20.532Z,100929.03
2024-02-02T19:26:47.349Z,100925.00
2024-02-02T19:29:13.842Z,100926.47
2024-02-02T19:31:40.649Z,100906.63
2024-02-02T19:34:07.869Z,100918.69
2024-02-02T19:36:34.790Z,100910.53
2024-02-02T19:39:02.079Z,100914.28
2024-02-02T19:41:33.317Z,100911.25
2024-02-02T19:44:00.359Z,100912.66
2024-02-02T19:46:26.900Z,100916.16
2024-02-02T19:48:54.610Z,100907.16
2024-02-02T19:51:23.072Z,100907.06
2024-02-02T19:53:49.936Z,100915.06
2024-02-02T19:56:16.756Z,100923.06
2024-02-02T19:58:43.667Z,100929.88
2024-02-02T20:01:14.534Z,100912.44
2024-02-02T20:03:42.089Z,100927.75
2024-02-02T20:06:10.046Z,100929.56
2024-02-02T20:08:39.158Z,100919.59
2024-02-02T20:11:05.782Z,100915.13
2024-02-02T20:13:32.484Z,100918.03
2024-02-02T20:15:58.978Z,100918.88
2024-02-02T20:18:25.661Z,100918.63
2024-02-02T20:20:54.776Z,100914.06
2024-02-02T20:23:21.737Z,100909.25
2024-02-02T20:25:48.503Z,100909.75
2024-02-02T20:28:15.145Z,100901.00
2024-02-02T20:30:41.789Z,100898.88
2024-02-02T20:33:08.862Z,100895.94
2024-02-02T20:35:35.502Z,100910.44
2024-02-02T20:38:02.101Z,100906.13
2024-02-02T20:40:28.582Z,100899.94
2024-02-02T20:42:55.184Z,100899.69
2024-02-02T20:45:22.399Z,100899.69
2024-02-02T20:47:48.915Z,100894.66
2024-02-02T20:50:15.569Z,100902.94
2024-02-02T20:52:42.152Z,100898.88
2024-02-02T20:55:09.167Z,100895.94
2024-02-02T20:57:35.790Z,100908.34
2024-02-02T21:00:02.296Z,100901.91
2024-02-02T21:02:28.823Z,100891.69
2024-02-02T21:04:55.360Z,100896.63
2024-02-02T21:07:22.272Z,100889.94
2024-02-02T21:09:49.047Z,100887.00
2024-02-02T21:12:15.733Z,100889.69
2024-02-02T21:14:42.379Z,100883.25
2024-02-02T21:17:09.176Z,100890.75
2024-02-02T21:19:35.874Z,100873.78
2024-02-02T21:22:06.662Z,100872.47
2024-02-02T21:24:33.757Z,100877.59
2024-02-02T21:27:00.405Z,100880.56
2024-02-02T21:29:26.996Z,100879.59
2024-02-02T21:31:53.534Z,100890.59
2024-02-02T21:34:20.063Z,100882.50
2024-02-02T21:36:46.765Z,100877.38
2024-02-02T21:39:13.557Z,100875.50
2024-02-02T21:41:40.160Z,100887.44
2024-02-02T21:44:10.092Z,100890.94
2024-02-02T21:46:37.005Z,100883.09
2024-02-02T21:49:04.036Z,100881.78
2024-02-02T21:51:30.694Z,100885.53
2024-02-02T21:53:57.293Z,100881.00
2024-02-02T21:56:23.851Z,100873.13
2024-02-02T21:58:50.363Z,100890.94
2024-02-02T22:01:16.986Z,100882.28
2024-02-02T22:03:43.619Z,100892.56
2024-02-02T22:06:10.836Z,100884.25
2024-02-02T22:08:37.471Z,100889.63
2024-02-02T22:11:04.132Z,100886.53
2024-02-02T22:13:30.698Z,100867.75
2024-02-02T22:15:57.306Z,100876.75
2024-02-02T22:18:23.904Z,100876.75
2024-02-02T22:20:50.470Z,100875.94
2024-02-02T22:23:16.992Z,100872.19
2024-02-02T22:25:43.494Z,100871.28
2024-02-02T22:28:10.096Z,100880.09
2024-02-02T22:30:36.630Z,100880.66
2024-02-02T22:33:03.827Z,100878.88
2024-02-02T22:35:30.513Z,100893.97
2024-02-02T22:37:57.017Z,100884.25
2024-02-02T22:40:23.610Z,100898.56
2024-02-02T22:42:50.160Z,100887.53
2024-02-02T22:45:17.163Z,100900.41
2024-02-02T22:47:43.827Z,100908.16
2024-02-02T22:50:11.669Z,100893.88
2024-02-02T22:52:38.379Z,100897.22
2024-02-02T22:55:05.190Z,100891.94
2024-02-02T22:57:31.789Z,100894.63
2024-02-02T23:00:02.523Z,100884.91
2024-02-02T23:02:32.992Z,100887.03
2024-02-02T23:04:59.518Z,100889.16
2024-02-02T23:07:26.364Z,100894.53
2024-02-02T23:09:52.950Z,100887.53
2024-02-02T23:12:19.957Z,100893.47
2024-02-02T23:14:46.458Z,100898.56
2024-02-02T23:17:13.085Z,100898.22
2024-02-02T23:19:43.889Z,100893.41
2024-02-02T23:22:11.548Z,100888.81
2024-02-02T23:24:38.112Z,100896.66
2024-02-02T23:27:04.889Z,100892.50
2024-02-02T23:29:31.460Z,100898.13
2024-02-02T23:31:57.955Z,100896.50
2024-02-02T23:34:24.614Z,100892.41
2024-02-02T23:36:52.233Z,100892.25
2024-02-02T23:39:19.070Z,100886.38
2024-02-02T23:41:45.590Z,100882.63
2024-02-02T23:44:12.157Z,100883.13
2024-02-02T23:46:38.675Z,100879.03
2024-02-02T23:49:05.766Z,100891.78
2024-02-02T23:51:32.446Z,100886.38
2024-02-02T23:53:58.968Z,100877.25
2024-02-02T23:56:25.438Z,100878.38
2024-02-02T23:58:51.936Z,100891.28
